Kearneysville, West Virginia
Current Conditions -  °F | °C
As of 12:53 AM on Thursday 23 Oct 2014 (Local Time) from KMRB Reporting Station
Few Clouds Few Clouds  
Wind Chill: 51°   Ceiling: Unl
Heat Index: 51°   Visibility: 10mi
Dew Point: 39°   Wind: 12mph
Humidity: 63%   Direction: 310°NW
Pressure: 29.99"   Gusts: 21mph
Location:  39.39°N, 77.89°W
Report Text: KMRB 230453Z AUTO 31010G18KT 10SM FEW031 11/04 A2999 RMK AO2 SLP156 T01060039 401390106 TSNO
Loading
Personal Weather Stations






























Interactive Weather Map
Tropical Storm Tracking
New forecast layout! Learn more

10-Day Weather Forecast

Advertisements
Track Severe Weather on mobile